sensor_id;sensor_type;location;lat;lon;timestamp;pressure;altitude;pressure_sealevel;temperature;humidity
78407;BME280;67692;51.074;-1.790;2023-03-04T00:00:38;102487.19;;;5.95;58.83
78407;BME280;67692;51.074;-1.790;2023-03-04T00:03:07;102486.56;;;5.82;59.01
78407;BME280;67692;51.074;-1.790;2023-03-04T00:05:35;102482.13;;;5.90;59.32
78407;BME280;67692;51.074;-1.790;2023-03-04T00:08:01;102485.53;;;5.91;58.51
78407;BME280;67692;51.074;-1.790;2023-03-04T00:10:29;102482.09;;;5.92;58.82
78407;BME280;67692;51.074;-1.790;2023-03-04T00:12:56;102491.41;;;5.97;58.58
78407;BME280;67692;51.074;-1.790;2023-03-04T00:15:22;102490.50;;;6.00;57.85
78407;BME280;67692;51.074;-1.790;2023-03-04T00:17:49;102486.31;;;5.96;58.11
78407;BME280;67692;51.074;-1.790;2023-03-04T00:20:16;102490.47;;;6.02;58.43
78407;BME280;67692;51.074;-1.790;2023-03-04T00:22:43;102495.50;;;6.08;58.50
78407;BME280;67692;51.074;-1.790;2023-03-04T00:25:09;102487.84;;;6.05;58.41
78407;BME280;67692;51.074;-1.790;2023-03-04T00:27:37;102492.28;;;5.98;58.07
78407;BME280;67692;51.074;-1.790;2023-03-04T00:30:05;102495.75;;;5.95;57.59
78407;BME280;67692;51.074;-1.790;2023-03-04T00:32:32;102502.63;;;5.95;57.48
78407;BME280;67692;51.074;-1.790;2023-03-04T00:34:58;102501.72;;;5.97;57.68
78407;BME280;67692;51.074;-1.790;2023-03-04T00:37:25;102502.66;;;5.92;57.74
78407;BME280;67692;51.074;-1.790;2023-03-04T00:39:52;102499.16;;;5.96;57.90
78407;BME280;67692;51.074;-1.790;2023-03-04T00:42:18;102504.31;;;5.96;57.81
78407;BME280;67692;51.074;-1.790;2023-03-04T00:44:46;102499.16;;;5.96;58.00
78407;BME280;67692;51.074;-1.790;2023-03-04T00:47:13;102502.34;;;6.07;57.71
78407;BME280;67692;51.074;-1.790;2023-03-04T00:49:40;102499.78;;;6.07;58.35
78407;BME280;67692;51.074;-1.790;2023-03-04T00:52:06;102499.81;;;6.06;58.32
78407;BME280;67692;51.074;-1.790;2023-03-04T00:54:33;102505.78;;;6.06;58.13
78407;BME280;67692;51.074;-1.790;2023-03-04T00:57:00;102497.34;;;6.01;58.50
78407;BME280;67692;51.074;-1.790;2023-03-04T00:59:26;102493.03;;;6.02;58.22
78407;BME280;67692;51.074;-1.790;2023-03-04T01:01:54;102502.34;;;6.07;58.40
78407;BME280;67692;51.074;-1.790;2023-03-04T01:04:21;102502.38;;;6.06;58.04
78407;BME280;67692;51.074;-1.790;2023-03-04T01:06:47;102501.69;;;5.99;58.16
78407;BME280;67692;51.074;-1.790;2023-03-04T01:09:14;102501.59;;;6.02;58.51
78407;BME280;67692;51.074;-1.790;2023-03-04T01:11:40;102495.47;;;6.09;58.52
78407;BME280;67692;51.074;-1.790;2023-03-04T01:14:07;102500.56;;;6.11;58.11
78407;BME280;67692;51.074;-1.790;2023-03-04T01:16:34;102500.63;;;6.09;58.01
78407;BME280;67692;51.074;-1.790;2023-03-04T01:19:01;102503.06;;;6.14;58.17
78407;BME280;67692;51.074;-1.790;2023-03-04T01:21:28;102509.22;;;6.08;58.54
78407;BME280;67692;51.074;-1.790;2023-03-04T01:23:55;102504.00;;;6.11;58.68
78407;BME280;67692;51.074;-1.790;2023-03-04T01:26:21;102498.97;;;6.05;58.30
78407;BME280;67692;51.074;-1.790;2023-03-04T01:28:48;102498.97;;;6.05;58.41
78407;BME280;67692;51.074;-1.790;2023-03-04T01:31:14;102497.16;;;6.10;58.65
78407;BME280;67692;51.074;-1.790;2023-03-04T01:33:41;102495.47;;;6.09;58.84
78407;BME280;67692;51.074;-1.790;2023-03-04T01:36:09;102494.03;;;5.96;59.09
78407;BME280;67692;51.074;-1.790;2023-03-04T01:38:35;102501.00;;;5.88;59.30
78407;BME280;67692;51.074;-1.790;2023-03-04T01:41:02;102492.47;;;5.86;60.03
78407;BME280;67692;51.074;-1.790;2023-03-04T01:43:29;102486.34;;;5.94;59.94
78407;BME280;67692;51.074;-1.790;2023-03-04T01:45:57;102482.81;;;5.99;59.89
78407;BME280;67692;51.074;-1.790;2023-03-04T01:48:26;102485.38;;;6.00;59.74
78407;BME280;67692;51.074;-1.790;2023-03-04T01:50:53;102480.38;;;5.94;59.86
78407;BME280;67692;51.074;-1.790;2023-03-04T01:53:23;102469.88;;;6.03;59.46
78407;BME280;67692;51.074;-1.790;2023-03-04T01:55:51;102470.84;;;5.97;60.07
78407;BME280;67692;51.074;-1.790;2023-03-04T01:58:18;102467.28;;;6.03;59.29
78407;BME280;67692;51.074;-1.790;2023-03-04T02:00:45;102471.78;;;5.95;59.92
78407;BME280;67692;51.074;-1.790;2023-03-04T02:03:14;102469.78;;;6.08;59.14
78407;BME280;67692;51.074;-1.790;2023-03-04T02:05:43;102454.41;;;6.05;59.52
78407;BME280;67692;51.074;-1.790;2023-03-04T02:08:12;102461.41;;;5.98;58.99
78407;BME280;67692;51.074;-1.790;2023-03-04T02:10:42;102456.28;;;5.98;59.47
78407;BME280;67692;51.074;-1.790;2023-03-04T02:13:10;102452.00;;;5.97;59.69
78407;BME280;67692;51.074;-1.790;2023-03-04T02:15:37;102454.66;;;5.94;59.50
78407;BME280;67692;51.074;-1.790;2023-03-04T02:18:09;102457.47;;;5.80;59.59
78407;BME280;67692;51.074;-1.790;2023-03-04T02:20:44;102458.19;;;5.87;59.89
78407;BME280;67692;51.074;-1.790;2023-03-04T02:23:16;102451.28;;;5.89;59.40
78407;BME280;67692;51.074;-1.790;2023-03-04T02:25:49;102451.25;;;5.92;59.91
78407;BME280;67692;51.074;-1.790;2023-03-04T02:28:17;102453.78;;;5.95;59.42
78407;BME280;67692;51.074;-1.790;2023-03-04T02:30:44;102451.25;;;5.92;60.20
78407;BME280;67692;51.074;-1.790;2023-03-04T02:33:15;102437.44;;;5.97;60.04
78407;BME280;67692;51.074;-1.790;2023-03-04T02:35:42;102445.13;;;5.97;59.75
78407;BME280;67692;51.074;-1.790;2023-03-04T02:38:09;102445.22;;;5.94;60.10
78407;BME280;67692;51.074;-1.790;2023-03-04T02:40:38;102436.53;;;5.99;59.75
78407;BME280;67692;51.074;-1.790;2023-03-04T02:43:05;102451.81;;;6.05;59.94
78407;BME280;67692;51.074;-1.790;2023-03-04T02:45:39;102448.41;;;6.04;59.43
78407;BME280;67692;51.074;-1.790;2023-03-04T02:48:07;102447.03;;;5.88;59.88
78407;BME280;67692;51.074;-1.790;2023-03-04T02:50:37;102452.94;;;5.93;59.81
78407;BME280;67692;51.074;-1.790;2023-03-04T02:53:05;102449.50;;;5.94;60.24
78407;BME280;67692;51.074;-1.790;2023-03-04T02:55:32;102452.97;;;5.91;59.99
78407;BME280;67692;51.074;-1.790;2023-03-04T02:57:59;102453.81;;;5.92;60.38
78407;BME280;67692;51.074;-1.790;2023-03-04T03:00:25;102455.44;;;5.54;60.78
78407;BME280;67692;51.074;-1.790;2023-03-04T03:02:53;102450.75;;;5.73;60.69
78407;BME280;67692;51.074;-1.790;2023-03-04T03:05:21;102448.78;;;5.86;60.76
78407;BME280;67692;51.074;-1.790;2023-03-04T03:07:48;102453.34;;;5.72;60.56
78407;BME280;67692;51.074;-1.790;2023-03-04T03:10:14;102448.97;;;5.77;60.35
78407;BME280;67692;51.074;-1.790;2023-03-04T03:12:41;102448.88;;;5.81;60.63
78407;BME280;67692;51.074;-1.790;2023-03-04T03:15:08;102448.28;;;5.68;60.61
78407;BME280;67692;51.074;-1.790;2023-03-04T03:17:35;102460.09;;;5.79;60.13
78407;BME280;67692;51.074;-1.790;2023-03-04T03:20:04;102446.03;;;5.53;60.40
78407;BME280;67692;51.074;-1.790;2023-03-04T03:22:30;102448.31;;;5.67;60.15
78407;BME280;67692;51.074;-1.790;2023-03-04T03:24:57;102445.66;;;5.72;59.94
78407;BME280;67692;51.074;-1.790;2023-03-04T03:27:23;102448.22;;;5.72;59.67
78407;BME280;67692;51.074;-1.790;2023-03-04T03:29:50;102447.41;;;5.70;59.82
78407;BME280;67692;51.074;-1.790;2023-03-04T03:32:16;102442.13;;;5.76;60.17
78407;BME280;67692;51.074;-1.790;2023-03-04T03:34:43;102448.94;;;5.78;59.88
78407;BME280;67692;51.074;-1.790;2023-03-04T03:37:11;102445.50;;;5.79;60.06
78407;BME280;67692;51.074;-1.790;2023-03-04T03:39:38;102443.72;;;5.83;60.08
78407;BME280;67692;51.074;-1.790;2023-03-04T03:42:05;102448.81;;;5.84;60.97
78407;BME280;67692;51.074;-1.790;2023-03-04T03:44:31;102449.66;;;5.85;60.08
78407;BME280;67692;51.074;-1.790;2023-03-04T03:46:58;102450.50;;;5.85;60.55
78407;BME280;67692;51.074;-1.790;2023-03-04T03:49:25;102447.88;;;5.90;61.22
78407;BME280;67692;51.074;-1.790;2023-03-04T03:51:51;102449.56;;;5.91;59.82
78407;BME280;67692;51.074;-1.790;2023-03-04T03:54:19;102452.38;;;5.77;60.16
78407;BME280;67692;51.074;-1.790;2023-03-04T03:56:46;102442.38;;;5.65;60.47
78407;BME280;67692;51.074;-1.790;2023-03-04T03:59:13;102448.13;;;5.76;60.46
78407;BME280;67692;51.074;-1.790;2023-03-04T04:01:39;102441.25;;;5.77;60.54
78407;BME280;67692;51.074;-1.790;2023-03-04T04:04:06;102441.09;;;5.84;60.29
78407;BME280;67692;51.074;-1.790;2023-03-04T04:06:32;102436.94;;;5.77;60.67
78407;BME280;67692;51.074;-1.790;2023-03-04T04:08:59;102442.94;;;5.78;60.39
78407;BME280;67692;51.074;-1.790;2023-03-04T04:11:27;102448.78;;;5.86;60.03
78407;BME280;67692;51.074;-1.790;2023-03-04T04:13:53;102447.13;;;5.83;60.44
78407;BME280;67692;51.074;-1.790;2023-03-04T04:16:20;102444.44;;;5.88;59.87
78407;BME280;67692;51.074;-1.790;2023-03-04T04:18:46;102454.44;;;5.60;60.57
78407;BME280;67692;51.074;-1.790;2023-03-04T04:21:13;102450.97;;;5.62;60.85
78407;BME280;67692;51.074;-1.790;2023-03-04T04:23:40;102460.50;;;5.57;60.84
78407;BME280;67692;51.074;-1.790;2023-03-04T04:26:07;102458.59;;;5.67;60.49
78407;BME280;67692;51.074;-1.790;2023-03-04T04:28:35;102452.06;;;5.49;60.54
78407;BME280;67692;51.074;-1.790;2023-03-04T04:31:01;102466.66;;;5.50;60.94
78407;BME280;67692;51.074;-1.790;2023-03-04T04:33:28;102460.66;;;5.50;60.77
78407;BME280;67692;51.074;-1.790;2023-03-04T04:35:54;102457.22;;;5.49;61.38
78407;BME280;67692;51.074;-1.790;2023-03-04T04:38:21;102452.78;;;5.57;60.67
78407;BME280;67692;51.074;-1.790;2023-03-04T04:40:48;102464.88;;;5.52;60.89
78407;BME280;67692;51.074;-1.790;2023-03-04T04:43:15;102456.47;;;5.44;60.98
78407;BME280;67692;51.074;-1.790;2023-03-04T04:45:44;102469.16;;;5.53;61.32
78407;BME280;67692;51.074;-1.790;2023-03-04T04:48:10;102469.09;;;5.56;61.00
78407;BME280;67692;51.074;-1.790;2023-03-04T04:50:37;102472.28;;;5.67;60.96
78407;BME280;67692;51.074;-1.790;2023-03-04T04:53:03;102479.97;;;5.69;61.17
78407;BME280;67692;51.074;-1.790;2023-03-04T04:55:30;102472.19;;;5.72;60.64
78407;BME280;67692;51.074;-1.790;2023-03-04T04:57:57;102476.03;;;5.51;61.01
78407;BME280;67692;51.074;-1.790;2023-03-04T05:00:24;102479.28;;;5.59;60.81
78407;BME280;67692;51.074;-1.790;2023-03-04T05:02:52;102484.63;;;5.50;61.61
78407;BME280;67692;51.074;-1.790;2023-03-04T05:05:18;102471.78;;;5.49;62.05
78407;BME280;67692;51.074;-1.790;2023-03-04T05:07:45;102474.53;;;5.40;62.18
78407;BME280;67692;51.074;-1.790;2023-03-04T05:10:12;102476.19;;;5.42;62.03
78407;BME280;67692;51.074;-1.790;2023-03-04T05:12:38;102474.25;;;5.55;62.05
78407;BME280;67692;51.074;-1.790;2023-03-04T05:15:06;102476.16;;;5.44;62.49
78407;BME280;67692;51.074;-1.790;2023-03-04T05:17:32;102477.91;;;5.43;62.35
78407;BME280;67692;51.074;-1.790;2023-03-04T05:20:00;102478.00;;;5.38;62.99
78407;BME280;67692;51.074;-1.790;2023-03-04T05:22:28;102466.91;;;5.35;62.85
78407;BME280;67692;51.074;-1.790;2023-03-04T05:24:55;102473.09;;;5.25;63.11
78407;BME280;67692;51.074;-1.790;2023-03-04T05:27:21;102474.06;;;5.18;63.44
78407;BME280;67692;51.074;-1.790;2023-03-04T05:29:48;102473.88;;;5.28;63.50
78407;BME280;67692;51.074;-1.790;2023-03-04T05:32:14;102473.06;;;5.26;62.94
78407;BME280;67692;51.074;-1.790;2023-03-04T05:34:41;102479.88;;;5.29;62.95
78407;BME280;67692;51.074;-1.790;2023-03-04T05:37:09;102479.06;;;5.27;62.80
78407;BME280;67692;51.074;-1.790;2023-03-04T05:39:35;102479.13;;;5.24;62.79
78407;BME280;67692;51.074;-1.790;2023-03-04T05:42:02;102472.97;;;5.31;62.91
78407;BME280;67692;51.074;-1.790;2023-03-04T05:44:28;102471.88;;;5.44;62.82
78407;BME280;67692;51.074;-1.790;2023-03-04T05:46:55;102476.09;;;5.47;62.47
78407;BME280;67692;51.074;-1.790;2023-03-04T05:49:22;102466.59;;;5.53;62.47
78407;BME280;67692;51.074;-1.790;2023-03-04T05:51:48;102469.88;;;5.60;62.47
78407;BME280;67692;51.074;-1.790;2023-03-04T05:54:16;102469.78;;;5.63;62.03
78407;BME280;67692;51.074;-1.790;2023-03-04T05:56:43;102471.50;;;5.64;61.92
78407;BME280;67692;51.074;-1.790;2023-03-04T05:59:09;102474.16;;;5.59;62.03
78407;BME280;67692;51.074;-1.790;2023-03-04T06:01:36;102474.28;;;5.53;61.26
78407;BME280;67692;51.074;-1.790;2023-03-04T06:04:02;102476.91;;;5.49;62.16
78407;BME280;67692;51.074;-1.790;2023-03-04T06:06:29;102485.38;;;5.55;62.14
78407;BME280;67692;51.074;-1.790;2023-03-04T06:08:56;102482.50;;;5.26;62.49
78407;BME280;67692;51.074;-1.790;2023-03-04T06:11:24;102478.00;;;5.38;62.26
78407;BME280;67692;51.074;-1.790;2023-03-04T06:13:51;102479.00;;;5.30;62.12
78407;BME280;67692;51.074;-1.790;2023-03-04T06:16:17;102488.47;;;5.26;62.19
78407;BME280;67692;51.074;-1.790;2023-03-04T06:18:44;102489.31;;;5.27;63.10
78407;BME280;67692;51.074;-1.790;2023-03-04T06:21:10;102489.38;;;5.24;62.69
78407;BME280;67692;51.074;-1.790;2023-03-04T06:23:37;102494.41;;;5.30;61.62
78407;BME280;67692;51.074;-1.790;2023-03-04T06:26:04;102490.25;;;5.23;61.61
78407;BME280;67692;51.074;-1.790;2023-03-04T06:28:34;102483.44;;;5.22;62.38
78407;BME280;67692;51.074;-1.790;2023-03-04T06:31:01;102486.69;;;5.30;62.47
78407;BME280;67692;51.074;-1.790;2023-03-04T06:33:27;102490.03;;;5.35;62.33
78407;BME280;67692;51.074;-1.790;2023-03-04T06:35:55;102493.44;;;5.37;61.98
78407;BME280;67692;51.074;-1.790;2023-03-04T06:38:22;102490.06;;;5.33;62.25
78407;BME280;67692;51.074;-1.790;2023-03-04T06:40:48;102496.81;;;5.39;62.26
78407;BME280;67692;51.074;-1.790;2023-03-04T06:43:15;102492.78;;;5.26;62.40
78407;BME280;67692;51.074;-1.790;2023-03-04T06:45:43;102494.41;;;5.30;62.47
78407;BME280;67692;51.074;-1.790;2023-03-04T06:48:10;102500.28;;;5.35;62.51
78407;BME280;67692;51.074;-1.790;2023-03-04T06:50:38;102505.50;;;5.32;62.51
78407;BME280;67692;51.074;-1.790;2023-03-04T06:53:05;102500.69;;;5.14;62.91
78407;BME280;67692;51.074;-1.790;2023-03-04T06:55:32;102500.75;;;5.11;62.68
78407;BME280;67692;51.074;-1.790;2023-03-04T06:57:58;102504.94;;;5.15;62.97
78407;BME280;67692;51.074;-1.790;2023-03-04T07:00:25;102512.66;;;5.15;62.44
78407;BME280;67692;51.074;-1.790;2023-03-04T07:02:53;102516.22;;;5.07;62.63
78407;BME280;67692;51.074;-1.790;2023-03-04T07:05:20;102516.00;;;5.18;62.23
78407;BME280;67692;51.074;-1.790;2023-03-04T07:07:46;102515.22;;;5.15;62.77
78407;BME280;67692;51.074;-1.790;2023-03-04T07:10:13;102521.91;;;5.25;62.45
78407;BME280;67692;51.074;-1.790;2023-03-04T07:12:40;102524.25;;;5.37;62.48
78407;BME280;67692;51.074;-1.790;2023-03-04T07:15:08;102519.16;;;5.34;61.79
78407;BME280;67692;51.074;-1.790;2023-03-04T07:17:35;102525.31;;;5.25;61.83
78407;BME280;67692;51.074;-1.790;2023-03-04T07:20:04;102516.66;;;5.31;62.07
78407;BME280;67692;51.074;-1.790;2023-03-04T07:22:31;102526.78;;;5.38;62.23
78407;BME280;67692;51.074;-1.790;2023-03-04T07:24:57;102523.34;;;5.40;61.93
78407;BME280;67692;51.074;-1.790;2023-03-04T07:27:24;102533.03;;;5.24;61.94
78407;BME280;67692;51.074;-1.790;2023-03-04T07:29:50;102523.81;;;5.12;62.85
78407;BME280;67692;51.074;-1.790;2023-03-04T07:32:17;102529.59;;;5.25;62.52
78407;BME280;67692;51.074;-1.790;2023-03-04T07:34:44;102525.06;;;5.39;62.05
78407;BME280;67692;51.074;-1.790;2023-03-04T07:37:12;102537.13;;;5.35;62.13
78407;BME280;67692;51.074;-1.790;2023-03-04T07:39:38;102531.84;;;5.43;62.19
78407;BME280;67692;51.074;-1.790;2023-03-04T07:42:05;102530.19;;;5.41;61.55
78407;BME280;67692;51.074;-1.790;2023-03-04T07:44:32;102531.09;;;5.38;62.08
78407;BME280;67692;51.074;-1.790;2023-03-04T07:46:58;102533.47;;;5.47;61.58
78407;BME280;67692;51.074;-1.790;2023-03-04T07:49:25;102534.59;;;5.32;62.25
78407;BME280;67692;51.074;-1.790;2023-03-04T07:51:51;102528.47;;;5.41;62.16
78407;BME280;67692;51.074;-1.790;2023-03-04T07:54:19;102531.25;;;5.29;61.34
78407;BME280;67692;51.074;-1.790;2023-03-04T07:56:46;102535.22;;;5.45;61.48
78407;BME280;67692;51.074;-1.790;2023-03-04T07:59:12;102534.59;;;5.32;60.26
78407;BME280;67692;51.074;-1.790;2023-03-04T08:01:39;102530.38;;;5.28;60.44
78407;BME280;67692;51.074;-1.790;2023-03-04T08:04:06;102522.53;;;5.37;60.75
78407;BME280;67692;51.074;-1.790;2023-03-04T08:06:33;102530.88;;;5.49;60.64
78407;BME280;67692;51.074;-1.790;2023-03-04T08:09:02;102536.84;;;5.49;59.81
78407;BME280;67692;51.074;-1.790;2023-03-04T08:11:32;102532.56;;;5.51;60.28
78407;BME280;67692;51.074;-1.790;2023-03-04T08:13:59;102534.06;;;5.61;60.10
78407;BME280;67692;51.074;-1.790;2023-03-04T08:16:26;102538.34;;;5.62;60.46
78407;BME280;67692;51.074;-1.790;2023-03-04T08:18:54;102540.81;;;5.68;60.61
78407;BME280;67692;51.074;-1.790;2023-03-04T08:21:22;102541.75;;;5.64;60.84
78407;BME280;67692;51.074;-1.790;2023-03-04T08:23:50;102550.25;;;5.68;60.30
78407;BME280;67692;51.074;-1.790;2023-03-04T08:26:18;102544.34;;;5.61;60.55
78407;BME280;67692;51.074;-1.790;2023-03-04T08:28:47;102545.13;;;5.66;60.18
78407;BME280;67692;51.074;-1.790;2023-03-04T08:31:14;102554.84;;;5.49;60.62
78407;BME280;67692;51.074;-1.790;2023-03-04T08:33:41;102544.53;;;5.52;60.14
78407;BME280;67692;51.074;-1.790;2023-03-04T08:36:08;102542.66;;;5.60;59.80
78407;BME280;67692;51.074;-1.790;2023-03-04T08:38:35;102546.91;;;5.61;60.62
78407;BME280;67692;51.074;-1.790;2023-03-04T08:41:02;102548.53;;;5.67;60.13
78407;BME280;67692;51.074;-1.790;2023-03-04T08:43:30;102541.81;;;5.60;60.21
78407;BME280;67692;51.074;-1.790;2023-03-04T08:45:58;102547.78;;;5.60;59.97
78407;BME280;67692;51.074;-1.790;2023-03-04T08:48:24;102558.34;;;5.45;60.29
78407;BME280;67692;51.074;-1.790;2023-03-04T08:50:51;102563.75;;;5.30;60.02
78407;BME280;67692;51.074;-1.790;2023-03-04T08:53:19;102557.78;;;5.28;59.70
78407;BME280;67692;51.074;-1.790;2023-03-04T08:55:46;102550.81;;;5.36;59.93
78407;BME280;67692;51.074;-1.790;2023-03-04T08:58:13;102561.84;;;5.41;59.50
78407;BME280;67692;51.074;-1.790;2023-03-04T09:00:41;102561.16;;;5.31;59.95
78407;BME280;67692;51.074;-1.790;2023-03-04T09:03:11;102561.16;;;5.31;60.43
78407;BME280;67692;51.074;-1.790;2023-03-04T09:05:37;102558.78;;;5.21;60.18
78407;BME280;67692;51.074;-1.790;2023-03-04T09:08:04;102563.94;;;5.21;60.18
78407;BME280;67692;51.074;-1.790;2023-03-04T09:10:31;102554.47;;;5.23;59.94
78407;BME280;67692;51.074;-1.790;2023-03-04T09:12:58;102560.25;;;5.34;59.79
78407;BME280;67692;51.074;-1.790;2023-03-04T09:15:25;102561.78;;;5.44;59.99
78407;BME280;67692;51.074;-1.790;2023-03-04T09:17:51;102566.06;;;5.45;59.57
78407;BME280;67692;51.074;-1.790;2023-03-04T09:20:20;102571.22;;;5.44;59.37
78407;BME280;67692;51.074;-1.790;2023-03-04T09:22:47;102567.94;;;5.34;59.79
78407;BME280;67692;51.074;-1.790;2023-03-04T09:25:14;102563.81;;;5.27;59.49
78407;BME280;67692;51.074;-1.790;2023-03-04T09:27:41;102571.63;;;5.21;59.76
78407;BME280;67692;51.074;-1.790;2023-03-04T09:30:08;102577.53;;;5.26;59.58
78407;BME280;67692;51.074;-1.790;2023-03-04T09:32:35;102573.94;;;5.36;59.76
78407;BME280;67692;51.074;-1.790;2023-03-04T09:35:03;102569.63;;;5.38;59.33
78407;BME280;67692;51.074;-1.790;2023-03-04T09:37:31;102566.00;;;5.48;59.76
78407;BME280;67692;51.074;-1.790;2023-03-04T09:39:57;102568.47;;;5.54;59.21
78407;BME280;67692;51.074;-1.790;2023-03-04T09:42:26;102576.22;;;5.53;59.65
78407;BME280;67692;51.074;-1.790;2023-03-04T09:44:54;102573.16;;;5.31;59.57
78407;BME280;67692;51.074;-1.790;2023-03-04T09:47:22;102562.00;;;5.32;59.71
78407;BME280;67692;51.074;-1.790;2023-03-04T09:49:55;102560.22;;;5.37;60.02
78407;BME280;67692;51.074;-1.790;2023-03-04T09:52:32;102567.31;;;5.23;59.95
78407;BME280;67692;51.074;-1.790;2023-03-04T09:55:06;102567.06;;;5.38;60.02
78407;BME280;67692;51.074;-1.790;2023-03-04T09:57:46;102568.84;;;5.33;60.38
78407;BME280;67692;51.074;-1.790;2023-03-04T10:00:19;102568.75;;;5.39;60.23
78407;BME280;67692;51.074;-1.790;2023-03-04T10:03:03;102569.53;;;5.43;59.87
78407;BME280;67692;51.074;-1.790;2023-03-04T10:05:32;102570.19;;;5.54;59.57
78407;BME280;67692;51.074;-1.790;2023-03-04T10:08:11;102565.50;;;5.28;60.02
78407;BME280;67692;51.074;-1.790;2023-03-04T10:10:42;102562.84;;;5.32;60.12
78407;BME280;67692;51.074;-1.790;2023-03-04T10:13:13;102569.56;;;5.41;60.17
78407;BME280;67692;51.074;-1.790;2023-03-04T10:15:42;102560.91;;;5.45;59.89
78407;BME280;67692;51.074;-1.790;2023-03-04T10:18:15;102557.97;;;5.66;60.10
78407;BME280;67692;51.074;-1.790;2023-03-04T10:20:52;102562.31;;;5.64;59.62
78407;BME280;67692;51.074;-1.790;2023-03-04T10:23:24;102564.75;;;5.71;60.00
78407;BME280;67692;51.074;-1.790;2023-03-04T10:25:52;102566.38;;;5.75;58.87
78407;BME280;67692;51.074;-1.790;2023-03-04T10:28:22;102562.78;;;5.85;58.64
78407;BME280;67692;51.074;-1.790;2023-03-04T10:30:54;102562.66;;;5.91;58.63
78407;BME280;67692;51.074;-1.790;2023-03-04T10:33:25;102559.31;;;5.86;58.20
78407;BME280;67692;51.074;-1.790;2023-03-04T10:35:55;102549.28;;;5.72;58.61
78407;BME280;67692;51.074;-1.790;2023-03-04T10:38:28;102552.94;;;5.60;59.38
78407;BME280;67692;51.074;-1.790;2023-03-04T10:40:57;102554.31;;;5.80;59.13
78407;BME280;67692;51.074;-1.790;2023-03-04T10:43:24;102556.03;;;5.78;59.64
78407;BME280;67692;51.074;-1.790;2023-03-04T10:45:54;102553.34;;;5.85;58.51
78407;BME280;67692;51.074;-1.790;2023-03-04T10:48:23;102559.72;;;5.64;59.13
78407;BME280;67692;51.074;-1.790;2023-03-04T10:50:49;102559.81;;;5.58;58.83
78407;BME280;67692;51.074;-1.790;2023-03-04T10:53:29;102546.16;;;5.56;59.62
78407;BME280;67692;51.074;-1.790;2023-03-04T10:55:57;102541.69;;;5.67;59.38
78407;BME280;67692;51.074;-1.790;2023-03-04T10:58:24;102547.59;;;5.71;59.36
78407;BME280;67692;51.074;-1.790;2023-03-04T11:01:00;102543.50;;;5.61;59.35
78407;BME280;67692;51.074;-1.790;2023-03-04T11:03:32;102539.75;;;5.77;59.09
78407;BME280;67692;51.074;-1.790;2023-03-04T11:06:10;102537.19;;;5.79;58.87
78407;BME280;67692;51.074;-1.790;2023-03-04T11:08:43;102534.63;;;5.77;59.64
78407;BME280;67692;51.074;-1.790;2023-03-04T11:11:30;102532.03;;;5.80;59.07
78407;BME280;67692;51.074;-1.790;2023-03-04T11:14:00;102535.38;;;5.84;59.28
78407;BME280;67692;51.074;-1.790;2023-03-04T11:16:30;102530.28;;;5.81;59.40
78407;BME280;67692;51.074;-1.790;2023-03-04T11:19:00;102534.88;;;5.65;59.70
78407;BME280;67692;51.074;-1.790;2023-03-04T11:21:30;102535.66;;;5.68;59.30
78407;BME280;67692;51.074;-1.790;2023-03-04T11:24:03;102530.41;;;5.75;59.19
78407;BME280;67692;51.074;-1.790;2023-03-04T11:26:30;102531.22;;;5.77;58.66
78407;BME280;67692;51.074;-1.790;2023-03-04T11:29:02;102529.28;;;5.88;58.40
78407;BME280;67692;51.074;-1.790;2023-03-04T11:31:36;102524.31;;;5.80;58.97
78407;BME280;67692;51.074;-1.790;2023-03-04T11:34:10;102518.44;;;5.74;58.84
78407;BME280;67692;51.074;-1.790;2023-03-04T11:36:50;102529.44;;;5.80;58.40
78407;BME280;67692;51.074;-1.790;2023-03-04T11:39:25;102508.91;;;5.79;58.85
78407;BME280;67692;51.074;-1.790;2023-03-04T11:41:58;102516.44;;;5.88;58.63
78407;BME280;67692;51.074;-1.790;2023-03-04T11:44:25;102512.13;;;5.90;58.94
78407;BME280;67692;51.074;-1.790;2023-03-04T11:47:16;102523.06;;;6.01;58.53
78407;BME280;67692;51.074;-1.790;2023-03-04T11:50:11;102513.81;;;5.91;57.90
78407;BME280;67692;51.074;-1.790;2023-03-04T11:52:53;102510.09;;;6.06;58.31
78407;BME280;67692;51.074;-1.790;2023-03-04T11:55:37;102505.63;;;6.15;57.79
78407;BME280;67692;51.074;-1.790;2023-03-04T11:58:17;102503.94;;;6.14;57.75
78407;BME280;67692;51.074;-1.790;2023-03-04T12:00:52;102495.13;;;6.24;57.82
78407;BME280;67692;51.074;-1.790;2023-03-04T12:03:33;102491.63;;;6.29;57.66
78407;BME280;67692;51.074;-1.790;2023-03-04T12:06:09;102487.97;;;6.39;57.58
78407;BME280;67692;51.074;-1.790;2023-03-04T12:08:52;102489.78;;;6.34;57.42
78407;BME280;67692;51.074;-1.790;2023-03-04T12:11:32;102492.97;;;6.45;57.31
78407;BME280;67692;51.074;-1.790;2023-03-04T12:14:22;102476.72;;;6.43;57.91
78407;BME280;67692;51.074;-1.790;2023-03-04T12:17:27;102471.09;;;6.25;57.27
78407;BME280;67692;51.074;-1.790;2023-03-04T12:20:14;102479.13;;;6.12;57.27
78407;BME280;67692;51.074;-1.790;2023-03-04T12:22:44;102475.84;;;6.04;57.59
78407;BME280;67692;51.074;-1.790;2023-03-04T12:25:32;102466.44;;;6.03;57.72
78407;BME280;67692;51.074;-1.790;2023-03-04T12:28:11;102468.03;;;6.10;57.82
78407;BME280;67692;51.074;-1.790;2023-03-04T12:30:52;102456.94;;;6.06;57.52
78407;BME280;67692;51.074;-1.790;2023-03-04T12:33:28;102458.34;;;6.19;57.32
78407;BME280;67692;51.074;-1.790;2023-03-04T12:36:06;102449.09;;;6.12;57.96
78407;BME280;67692;51.074;-1.790;2023-03-04T12:38:49;102456.59;;;6.21;57.51
78407;BME280;67692;51.074;-1.790;2023-03-04T12:41:32;102456.56;;;6.24;57.96
78407;BME280;67692;51.074;-1.790;2023-03-04T12:44:08;102447.25;;;6.17;57.62
78407;BME280;67692;51.074;-1.790;2023-03-04T12:46:45;102450.53;;;6.25;57.35
78407;BME280;67692;51.074;-1.790;2023-03-04T12:49:28;102446.47;;;6.15;57.01
78407;BME280;67692;51.074;-1.790;2023-03-04T12:52:04;102436.91;;;6.20;57.07
78407;BME280;67692;51.074;-1.790;2023-03-04T12:54:39;102434.25;;;6.25;57.63
78407;BME280;67692;51.074;-1.790;2023-03-04T12:57:10;102432.28;;;6.35;57.77
78407;BME280;67692;51.074;-1.790;2023-03-04T12:59:43;102422.75;;;6.40;57.62